Time;durP1;ratioP1;P1;durP2;ratioP2;P2;SDS_P1;SDS_P2;PMS_P1;PMS_P2;Temp;Humidity;BMP_temperature;BMP_pressure;BME280_temperature;BME280_humidity;BME280_pressure;Samples;Min_cycle;Max_cycle;Signal;HPM_P1;HPM_P2
2023/12/18 00:02:19;;;;;;;14.65;5.32;;;7.50;99.90;;;;;;5000188;28;20077;-76
2023/12/18 00:04:45;;;;;;;19.92;6.25;;;7.50;99.90;;;;;;5016008;28;20046;-77
2023/12/18 00:07:11;;;;;;;17.42;6.35;;;7.50;99.90;;;;;;5011911;28;20133;-76
2023/12/18 00:09:39;;;;;;;12.63;6.22;;;7.50;99.90;;;;;;5022586;28;20470;-76
2023/12/18 00:12:05;;;;;;;18.65;6.35;;;7.50;99.90;;;;;;5046406;28;20038;-76
2023/12/18 00:14:31;;;;;;;16.25;6.32;;;7.50;99.90;;;;;;4974170;28;20053;-76
2023/12/18 00:16:56;;;;;;;14.50;5.80;;;7.60;99.90;;;;;;5015429;28;20058;-75
2023/12/18 00:19:23;;;;;;;27.25;5.50;;;7.60;99.90;;;;;;5004842;28;20053;-76
2023/12/18 00:21:49;;;;;;;15.25;5.78;;;7.60;99.90;;;;;;5002296;28;20042;-76
2023/12/18 00:24:15;;;;;;;13.77;6.05;;;7.60;99.90;;;;;;5027760;28;20129;-76
2023/12/18 00:26:40;;;;;;;12.65;6.00;;;7.60;99.90;;;;;;5014324;28;20046;-76
2023/12/18 00:29:06;;;;;;;18.33;6.38;;;7.60;99.90;;;;;;5001025;28;20129;-76
2023/12/18 00:31:32;;;;;;;23.02;6.80;;;7.60;99.90;;;;;;5031811;28;20129;-76
2023/12/18 00:33:58;;;;;;;15.70;5.88;;;7.60;99.90;;;;;;4993900;28;20556;-76
2023/12/18 00:36:23;;;;;;;16.33;6.47;;;7.60;99.90;;;;;;5008559;28;20054;-76
2023/12/18 00:38:49;;;;;;;13.55;4.75;;;7.70;99.90;;;;;;4994947;28;20038;-76
2023/12/18 00:41:17;;;;;;;13.15;5.82;;;7.60;99.90;;;;;;4982159;28;20065;-76
2023/12/18 00:43:43;;;;;;;16.63;6.53;;;7.70;99.90;;;;;;4977143;28;20046;-76
2023/12/18 00:46:08;;;;;;;21.55;6.57;;;7.60;99.90;;;;;;4994013;28;20462;-76
2023/12/18 00:48:34;;;;;;;17.35;6.60;;;7.70;99.90;;;;;;4993194;28;20046;-76
2023/12/18 00:51:00;;;;;;;11.68;5.85;;;7.70;99.90;;;;;;5015237;28;20038;-77
2023/12/18 00:53:25;;;;;;;15.75;6.35;;;7.70;99.90;;;;;;4979492;28;20038;-76
2023/12/18 00:55:51;;;;;;;18.13;5.40;;;7.70;99.90;;;;;;4993350;28;20042;-76
2023/12/18 00:58:17;;;;;;;9.02;5.38;;;7.60;99.90;;;;;;4993419;28;20530;-76
2023/12/18 01:00:42;;;;;;;13.95;5.95;;;7.70;99.90;;;;;;4995341;28;20171;-76
2023/12/18 01:03:08;;;;;;;11.52;6.32;;;7.70;99.90;;;;;;4988885;28;20038;-76
2023/12/18 01:05:34;;;;;;;16.10;6.15;;;7.70;99.90;;;;;;4976389;28;20379;-76
2023/12/18 01:08:00;;;;;;;18.50;5.25;;;7.70;99.90;;;;;;4966745;28;20038;-76
2023/12/18 01:10:26;;;;;;;12.65;5.78;;;7.70;99.90;;;;;;4978176;28;20099;-76
2023/12/18 01:12:51;;;;;;;14.73;5.35;;;7.70;99.90;;;;;;4984319;28;20483;-76
2023/12/18 01:15:17;;;;;;;12.88;5.97;;;7.70;99.90;;;;;;4980089;28;20046;-76
2023/12/18 01:17:43;;;;;;;11.07;5.70;;;7.70;99.90;;;;;;4998481;28;20050;-76
2023/12/18 01:20:09;;;;;;;19.10;6.40;;;7.70;99.90;;;;;;4978383;28;20045;-76
2023/12/18 01:22:34;;;;;;;16.48;5.63;;;7.70;99.90;;;;;;4976910;28;20042;-76
2023/12/18 01:25:03;;;;;;;19.92;5.88;;;7.70;99.90;;;;;;5011186;28;20097;-76
2023/12/18 01:27:28;;;;;;;13.00;5.50;;;7.80;99.90;;;;;;4993271;28;20084;-76
2023/12/18 01:29:54;;;;;;;17.73;5.70;;;7.80;99.90;;;;;;4996875;28;20046;-76
2023/12/18 01:32:20;;;;;;;15.77;5.55;;;7.80;99.90;;;;;;4975363;28;20114;-76
2023/12/18 01:34:45;;;;;;;12.05;5.40;;;7.80;99.90;;;;;;4994941;28;20053;-76
2023/12/18 01:37:11;;;;;;;13.82;4.45;;;7.80;99.90;;;;;;4995149;28;20433;-76
2023/12/18 01:39:37;;;;;;;15.50;4.97;;;7.80;99.90;;;;;;4976178;28;20095;-76
2023/12/18 01:42:02;;;;;;;18.55;5.53;;;7.80;99.90;;;;;;5011888;28;20042;-76
2023/12/18 01:44:28;;;;;;;18.65;6.07;;;7.80;99.90;;;;;;4991567;28;20050;-76
2023/12/18 01:46:55;;;;;;;11.80;4.97;;;7.80;99.90;;;;;;4978481;28;20042;-76
2023/12/18 01:49:21;;;;;;;14.52;5.25;;;7.80;99.90;;;;;;4973925;28;20038;-76
2023/12/18 01:51:47;;;;;;;17.75;6.50;;;7.80;99.90;;;;;;4977187;28;20049;-76
2023/12/18 01:54:13;;;;;;;16.00;5.60;;;7.80;99.90;;;;;;5074360;28;20050;-76
2023/12/18 01:56:40;;;;;;;11.18;4.63;;;7.80;99.90;;;;;;4993290;28;20151;-76
2023/12/18 01:59:09;;;;;;;20.55;5.72;;;7.80;99.90;;;;;;4978880;28;20044;-76
2023/12/18 02:01:36;;;;;;;13.60;5.10;;;7.80;99.90;;;;;;4968108;28;20110;-76
2023/12/18 02:04:02;;;;;;;13.63;5.72;;;7.90;99.90;;;;;;5032156;28;20080;-76
2023/12/18 02:06:28;;;;;;;17.88;5.82;;;7.90;99.90;;;;;;5011544;28;20042;-76
2023/12/18 02:08:56;;;;;;;9.10;4.97;;;7.90;99.90;;;;;;5037388;28;20413;-76
2023/12/18 02:11:22;;;;;;;12.25;5.13;;;7.90;99.90;;;;;;4999903;28;20175;-76
2023/12/18 02:13:48;;;;;;;13.27;5.75;;;7.90;99.90;;;;;;5058630;28;20036;-76
2023/12/18 02:16:14;;;;;;;14.00;5.68;;;7.90;99.90;;;;;;5026458;28;20046;-76
2023/12/18 02:18:47;;;;;;;12.38;4.88;;;7.90;99.90;;;;;;5033939;28;20026;-76
2023/12/18 02:21:21;;;;;;;11.70;5.93;;;7.90;99.90;;;;;;5033222;28;20112;-76
2023/12/18 02:23:48;;;;;;;11.70;4.90;;;7.90;99.90;;;;;;5018827;28;20047;-76
2023/12/18 02:26:15;;;;;;;17.15;4.72;;;7.90;99.90;;;;;;5043887;28;20100;-76
2023/12/18 02:28:43;;;;;;;17.75;5.20;;;7.90;99.90;;;;;;5048690;28;20054;-76
2023/12/18 02:31:12;;;;;;;15.70;6.13;;;7.90;99.90;;;;;;4982274;28;20083;-76
2023/12/18 02:33:37;;;;;;;15.20;5.50;;;7.90;99.90;;;;;;5010575;28;20041;-76
2023/12/18 02:36:03;;;;;;;11.27;5.55;;;8.00;99.90;;;;;;5010085;28;20057;-76
2023/12/18 02:38:29;;;;;;;11.77;5.22;;;8.00;99.90;;;;;;4997089;28;20041;-76
2023/12/18 02:40:55;;;;;;;12.38;4.43;;;8.00;99.90;;;;;;4995723;28;20049;-76
2023/12/18 02:43:20;;;;;;;17.10;5.95;;;8.00;99.90;;;;;;4964621;28;20700;-76
2023/12/18 02:45:46;;;;;;;18.25;5.85;;;7.90;99.90;;;;;;4979797;28;20073;-76
2023/12/18 02:48:12;;;;;;;13.13;5.28;;;7.90;99.90;;;;;;4979461;28;20092;-76
2023/12/18 02:50:38;;;;;;;16.67;6.05;;;7.90;99.90;;;;;;5015570;28;20057;-76
2023/12/18 02:53:04;;;;;;;16.48;6.38;;;7.90;99.90;;;;;;4975426;28;20046;-76
2023/12/18 02:55:30;;;;;;;15.82;5.05;;;7.80;99.90;;;;;;5006533;28;20046;-76
2023/12/18 02:57:55;;;;;;;16.02;6.97;;;7.80;99.90;;;;;;4994742;28;20052;-76
2023/12/18 03:00:21;;;;;;;16.38;6.55;;;7.80;99.90;;;;;;5010602;28;20064;-76
2023/12/18 03:02:47;;;;;;;15.77;6.72;;;7.70;99.90;;;;;;5044076;28;20033;-77
2023/12/18 03:05:14;;;;;;;17.88;6.57;;;7.70;99.90;;;;;;5015378;28;20137;-76
2023/12/18 03:07:39;;;;;;;19.00;7.13;;;7.70;99.90;;;;;;4987835;28;20097;-76
2023/12/18 03:10:06;;;;;;;18.92;8.07;;;7.60;99.90;;;;;;4996056;28;20588;-76
2023/12/18 03:12:31;;;;;;;20.45;6.88;;;7.60;99.90;;;;;;4983141;28;20076;-76
2023/12/18 03:14:57;;;;;;;16.40;6.53;;;7.60;99.90;;;;;;4976031;28;20042;-76
2023/12/18 03:17:23;;;;;;;10.02;5.55;;;7.60;99.90;;;;;;5032920;28;20417;-76
2023/12/18 03:19:48;;;;;;;13.95;5.40;;;7.60;99.90;;;;;;4994766;28;20038;-76
2023/12/18 03:22:14;;;;;;;11.45;5.55;;;7.60;99.90;;;;;;4978207;28;20042;-76
2023/12/18 03:24:42;;;;;;;14.80;6.90;;;7.60;99.90;;;;;;4969448;28;20625;-77
2023/12/18 03:27:08;;;;;;;17.98;6.60;;;7.60;99.90;;;;;;5009618;28;20056;-76
2023/12/18 03:29:34;;;;;;;14.40;6.63;;;7.60;99.90;;;;;;4979615;28;20083;-76
2023/12/18 03:32:00;;;;;;;15.70;6.75;;;7.50;99.90;;;;;;4978518;28;20044;-76
2023/12/18 03:34:26;;;;;;;10.80;5.85;;;7.50;99.90;;;;;;4980080;28;20046;-76
2023/12/18 03:36:52;;;;;;;10.65;6.00;;;7.50;99.90;;;;;;4993465;28;20111;-76
2023/12/18 03:39:18;;;;;;;20.92;6.50;;;7.50;99.90;;;;;;4991871;28;20042;-76
2023/12/18 03:41:43;;;;;;;14.43;6.57;;;7.50;99.90;;;;;;4996645;28;20048;-76
2023/12/18 03:44:09;;;;;;;17.48;6.88;;;7.50;99.90;;;;;;4978237;28;20042;-76
2023/12/18 03:46:35;;;;;;;15.77;6.60;;;7.50;99.90;;;;;;5008321;28;20045;-76
2023/12/18 03:49:00;;;;;;;17.17;5.82;;;7.50;99.90;;;;;;4961174;28;20041;-76
2023/12/18 03:51:26;;;;;;;14.23;6.40;;;7.50;99.90;;;;;;4979076;28;20038;-76
2023/12/18 03:53:52;;;;;;;15.80;6.63;;;7.50;99.90;;;;;;4979071;28;20145;-77
2023/12/18 03:56:17;;;;;;;16.60;7.55;;;7.50;99.90;;;;;;4978892;28;20049;-76
2023/12/18 03:58:43;;;;;;;18.17;7.20;;;7.50;99.90;;;;;;4983714;28;20049;-76
2023/12/18 04:01:09;;;;;;;15.35;6.82;;;7.50;99.90;;;;;;4993780;28;20131;-76
2023/12/18 04:03:35;;;;;;;12.93;6.60;;;7.50;99.90;;;;;;4995177;28;20532;-76
2023/12/18 04:06:01;;;;;;;18.10;6.22;;;7.50;99.90;;;;;;4977395;28;20599;-76
2023/12/18 04:08:27;;;;;;;12.88;6.68;;;7.50;99.90;;;;;;4979360;28;20049;-76
2023/12/18 04:10:52;;;;;;;18.35;6.18;;;7.50;99.90;;;;;;5002400;28;20050;-76
2023/12/18 04:13:18;;;;;;;15.85;5.75;;;7.50;99.90;;;;;;4979538;28;20060;-76
2023/12/18 04:15:44;;;;;;;14.77;7.00;;;7.50;99.90;;;;;;4995007;28;20058;-76
2023/12/18 04:18:10;;;;;;;14.00;6.60;;;7.50;99.90;;;;;;4976825;28;20058;-76
2023/12/18 04:20:35;;;;;;;11.30;6.18;;;7.50;99.90;;;;;;5028275;28;20549;-76
2023/12/18 04:23:01;;;;;;;13.50;6.30;;;7.50;99.90;;;;;;4989150;28;20049;-76
2023/12/18 04:25:27;;;;;;;15.98;7.53;;;7.50;99.90;;;;;;4978512;28;20038;-76
2023/12/18 04:27:53;;;;;;;12.68;6.35;;;7.50;99.90;;;;;;4989256;28;20044;-76
2023/12/18 04:30:19;;;;;;;14.68;5.45;;;7.50;99.90;;;;;;4992390;28;20068;-76
2023/12/18 04:32:44;;;;;;;11.05;5.95;;;7.50;99.90;;;;;;4994437;28;20045;-76
2023/12/18 04:35:10;;;;;;;17.13;5.80;;;7.50;99.90;;;;;;5039000;28;20044;-76
2023/12/18 04:37:36;;;;;;;15.02;6.28;;;7.50;99.90;;;;;;5045002;28;20039;-76
2023/12/18 04:40:03;;;;;;;15.48;6.25;;;7.50;99.90;;;;;;4992093;28;20067;-76
2023/12/18 04:42:29;;;;;;;20.33;6.53;;;7.50;99.90;;;;;;4984519;28;20109;-76
2023/12/18 04:44:57;;;;;;;16.17;5.60;;;7.50;99.90;;;;;;5065784;28;20040;-76
2023/12/18 04:47:23;;;;;;;11.43;6.13;;;7.60;99.90;;;;;;4995590;28;20162;-76
2023/12/18 04:49:48;;;;;;;13.02;6.22;;;7.50;99.90;;;;;;4993328;28;20054;-76
2023/12/18 04:52:14;;;;;;;17.55;5.72;;;7.50;99.90;;;;;;4991643;28;20071;-76
2023/12/18 04:54:40;;;;;;;25.40;6.20;;;7.50;99.90;;;;;;4963112;28;20038;-76
2023/12/18 04:57:05;;;;;;;10.60;6.18;;;7.50;99.90;;;;;;4994649;28;20049;-76
2023/12/18 04:59:31;;;;;;;21.17;6.40;;;7.60;99.90;;;;;;4992287;28;20050;-76
2023/12/18 05:01:57;;;;;;;16.67;5.47;;;7.50;99.90;;;;;;4996821;28;20516;-76
2023/12/18 05:04:24;;;;;;;16.25;5.80;;;7.60;99.90;;;;;;4979955;28;20085;-76
2023/12/18 05:06:50;;;;;;;12.20;6.00;;;7.50;99.90;;;;;;5014493;28;20398;-76
2023/12/18 05:09:16;;;;;;;19.25;6.25;;;7.60;99.90;;;;;;4993678;28;20131;-76
2023/12/18 05:11:41;;;;;;;13.30;5.10;;;7.60;99.90;;;;;;4994860;28;20046;-76
2023/12/18 05:14:08;;;;;;;15.20;5.75;;;7.60;99.90;;;;;;4998256;28;20042;-76
2023/12/18 05:16:34;;;;;;;22.65;6.00;;;7.60;99.90;;;;;;4998331;28;20107;-77
2023/12/18 05:19:00;;;;;;;19.65;6.50;;;7.60;99.90;;;;;;5051301;28;20040;-76
2023/12/18 05:21:25;;;;;;;14.75;6.40;;;7.60;99.90;;;;;;5053583;28;20060;-76
2023/12/18 05:23:51;;;;;;;12.90;5.15;;;7.60;99.90;;;;;;5054184;28;20036;-77
2023/12/18 05:26:17;;;;;;;11.80;5.85;;;7.60;99.90;;;;;;5001825;28;20061;-77
2023/12/18 05:28:43;;;;;;;14.40;5.50;;;7.60;99.90;;;;;;4967515;28;20041;-77
2023/12/18 05:31:09;;;;;;;7.57;4.68;;;7.60;99.90;;;;;;4992002;28;20688;-77
2023/12/18 05:33:35;;;;;;;15.68;6.82;;;7.60;99.90;;;;;;4980238;28;20116;-77
2023/12/18 05:36:01;;;;;;;20.00;6.80;;;7.60;99.90;;;;;;4992493;28;20046;-77
2023/12/18 05:38:27;;;;;;;19.45;6.00;;;7.60;99.90;;;;;;4976697;28;20589;-77
2023/12/18 05:40:52;;;;;;;12.82;6.07;;;7.60;99.90;;;;;;4992839;28;20045;-77
2023/12/18 05:43:18;;;;;;;15.23;6.65;;;7.60;99.90;;;;;;4993528;28;20062;-77
2023/12/18 05:45:44;;;;;;;12.18;6.30;;;7.60;99.90;;;;;;5007476;28;20077;-77
2023/12/18 05:48:09;;;;;;;22.00;5.97;;;7.60;99.90;;;;;;4993277;28;20034;-76
2023/12/18 05:50:35;;;;;;;13.48;4.80;;;7.60;99.90;;;;;;4991908;28;20045;-77
2023/12/18 05:53:01;;;;;;;12.90;7.18;;;7.60;99.90;;;;;;4986627;28;20432;-77
2023/12/18 05:55:26;;;;;;;16.58;6.63;;;7.60;99.90;;;;;;5009258;28;20048;-76
2023/12/18 05:57:52;;;;;;;13.65;5.85;;;7.60;99.90;;;;;;5042924;28;20036;-77
2023/12/18 06:00:19;;;;;;;9.73;5.63;;;7.60;99.90;;;;;;4982967;28;20044;-76
2023/12/18 06:02:45;;;;;;;10.30;5.63;;;7.60;99.90;;;;;;5026346;28;20050;-76
2023/12/18 06:05:11;;;;;;;13.00;6.40;;;7.60;99.90;;;;;;5008876;28;20038;-76
2023/12/18 06:07:36;;;;;;;12.90;7.03;;;7.60;99.90;;;;;;4984437;28;20038;-77
2023/12/18 06:10:03;;;;;;;10.70;5.13;;;7.50;99.90;;;;;;5002363;28;20068;-77
2023/12/18 06:12:28;;;;;;;18.02;6.63;;;7.60;99.90;;;;;;5003048;28;20038;-77
2023/12/18 06:14:54;;;;;;;18.52;6.05;;;7.60;99.90;;;;;;5045599;28;20699;-77
2023/12/18 06:17:20;;;;;;;13.85;8.02;;;7.60;99.90;;;;;;5046210;28;20056;-77
2023/12/18 06:19:47;;;;;;;11.77;5.57;;;7.60;99.90;;;;;;5020377;28;20069;-77
2023/12/18 06:22:13;;;;;;;12.63;5.72;;;7.60;99.90;;;;;;5021399;28;20049;-77
2023/12/18 06:24:39;;;;;;;15.07;5.88;;;7.60;99.90;;;;;;4996170;28;20399;-77
2023/12/18 06:27:05;;;;;;;14.77;5.65;;;7.60;99.90;;;;;;4994689;28;20141;-77
2023/12/18 06:29:31;;;;;;;11.25;5.85;;;7.60;99.90;;;;;;4994081;28;20069;-76
2023/12/18 06:31:57;;;;;;;18.73;6.50;;;7.60;99.90;;;;;;5008800;28;20068;-76
2023/12/18 06:34:23;;;;;;;15.40;5.90;;;7.60;99.90;;;;;;4997720;28;20485;-76
2023/12/18 06:36:49;;;;;;;14.85;5.57;;;7.60;99.90;;;;;;4994973;28;20113;-77
2023/12/18 06:39:15;;;;;;;10.75;5.95;;;7.60;99.90;;;;;;4995207;28;20076;-77
2023/12/18 06:41:41;;;;;;;14.95;6.10;;;7.60;99.90;;;;;;4994773;28;20050;-77
2023/12/18 06:44:06;;;;;;;11.40;5.97;;;7.60;99.90;;;;;;4978789;28;20053;-77
2023/12/18 06:46:34;;;;;;;18.40;5.85;;;7.60;99.90;;;;;;4995612;28;20135;-77
2023/12/18 06:49:01;;;;;;;13.90;6.30;;;7.60;99.90;;;;;;4979304;28;20953;-77
2023/12/18 06:51:27;;;;;;;10.43;6.18;;;7.60;99.90;;;;;;4993911;28;20047;-77
2023/12/18 06:53:52;;;;;;;19.38;6.60;;;7.60;99.90;;;;;;4993731;28;20067;-77
2023/12/18 06:56:18;;;;;;;12.98;6.47;;;7.60;99.90;;;;;;4995507;28;20045;-77
2023/12/18 06:58:44;;;;;;;19.05;6.53;;;7.60;99.90;;;;;;5002462;28;20045;-77
2023/12/18 07:01:10;;;;;;;15.77;6.28;;;7.60;99.90;;;;;;4979431;28;20132;-77
2023/12/18 07:03:35;;;;;;;13.88;6.65;;;7.60;99.90;;;;;;4997868;28;20049;-77
2023/12/18 07:06:02;;;;;;;14.38;6.60;;;7.60;99.90;;;;;;4977543;28;20050;-77
2023/12/18 07:08:29;;;;;;;10.68;5.75;;;7.60;99.90;;;;;;5019499;28;20533;-76
2023/12/18 07:10:57;;;;;;;22.95;6.80;;;7.60;99.90;;;;;;4998113;28;20046;-77
2023/12/18 07:13:23;;;;;;;26.52;7.70;;;7.60;99.90;;;;;;4999384;28;20105;-77
2023/12/18 07:15:48;;;;;;;19.17;7.25;;;7.60;99.90;;;;;;4991772;28;20082;-76
2023/12/18 07:18:14;;;;;;;14.63;6.38;;;7.60;99.90;;;;;;4993824;28;20038;-77
2023/12/18 07:20:41;;;;;;;14.52;6.88;;;7.60;99.90;;;;;;4987784;28;20038;-77
2023/12/18 07:23:08;;;;;;;17.65;6.80;;;7.60;99.90;;;;;;4995177;28;20053;-77
2023/12/18 07:25:33;;;;;;;15.10;6.20;;;7.60;99.90;;;;;;4996832;28;20046;-76
2023/12/18 07:27:59;;;;;;;21.73;6.95;;;7.70;99.90;;;;;;4994146;28;20461;-77
2023/12/18 07:30:25;;;;;;;16.50;6.75;;;7.70;99.90;;;;;;4978672;28;20038;-77
2023/12/18 07:32:51;;;;;;;20.25;6.88;;;7.60;99.90;;;;;;4994620;28;20072;-77
2023/12/18 07:35:16;;;;;;;19.73;6.90;;;7.60;99.90;;;;;;4979733;28;20050;-77
2023/12/18 07:37:42;;;;;;;12.45;6.38;;;7.60;99.90;;;;;;4979427;28;20053;-76
2023/12/18 07:40:08;;;;;;;21.73;6.63;;;7.60;99.90;;;;;;4977941;28;20483;-77
2023/12/18 07:42:34;;;;;;;19.67;7.55;;;7.60;99.90;;;;;;4979952;28;20125;-77
2023/12/18 07:44:59;;;;;;;19.95;8.25;;;7.70;99.90;;;;;;4961485;28;20158;-77
2023/12/18 07:47:25;;;;;;;12.48;6.15;;;7.70;99.90;;;;;;4987197;28;20071;-77
2023/12/18 07:49:51;;;;;;;24.48;7.53;;;7.70;99.90;;;;;;4994688;28;20085;-77
2023/12/18 07:52:17;;;;;;;14.45;6.57;;;7.70;99.90;;;;;;4978920;28;20042;-77
2023/12/18 07:54:42;;;;;;;19.88;7.78;;;7.70;99.90;;;;;;4994665;28;20033;-77
2023/12/18 07:57:08;;;;;;;18.75;7.00;;;7.70;99.90;;;;;;4996384;28;20050;-77
2023/12/18 07:59:39;;;;;;;22.67;8.00;;;7.70;99.90;;;;;;5025445;28;20042;-77
2023/12/18 08:02:09;;;;;;;21.98;7.07;;;7.70;99.90;;;;;;5004087;28;20049;-77
2023/12/18 08:04:38;;;;;;;16.65;7.38;;;7.70;99.90;;;;;;4988834;28;20038;-77
2023/12/18 08:07:04;;;;;;;22.30;8.55;;;7.70;99.90;;;;;;5025790;28;20042;-77
2023/12/18 08:09:30;;;;;;;14.30;7.00;;;7.70;99.90;;;;;;5022106;28;20054;-77
2023/12/18 08:11:56;;;;;;;21.02;6.70;;;7.70;99.90;;;;;;4995392;28;20038;-77
2023/12/18 08:14:22;;;;;;;16.42;6.40;;;7.70;99.90;;;;;;4991919;28;20091;-77
2023/12/18 08:16:49;;;;;;;16.00;7.93;;;7.70;99.90;;;;;;4979269;28;20110;-77
2023/12/18 08:19:14;;;;;;;19.42;7.82;;;7.70;99.90;;;;;;5004145;28;20612;-77
2023/12/18 08:21:40;;;;;;;15.27;7.35;;;7.80;99.90;;;;;;4995528;28;20561;-77
2023/12/18 08:24:06;;;;;;;16.73;7.78;;;7.70;99.90;;;;;;4993904;28;20045;-77
2023/12/18 08:26:32;;;;;;;13.88;6.97;;;7.70;99.90;;;;;;4977389;28;20069;-77
2023/12/18 08:28:57;;;;;;;23.48;8.38;;;7.80;99.90;;;;;;5007081;28;20445;-77
2023/12/18 08:31:23;;;;;;;17.38;6.90;;;7.70;99.90;;;;;;5002470;28;20060;-77
2023/12/18 08:33:49;;;;;;;18.55;8.63;;;7.80;99.90;;;;;;5020202;28;20036;-77
2023/12/18 08:36:15;;;;;;;20.52;7.85;;;7.80;99.90;;;;;;5027828;28;20085;-77
2023/12/18 08:38:40;;;;;;;17.75;8.68;;;7.80;99.90;;;;;;4994459;28;20046;-77
2023/12/18 08:41:06;;;;;;;13.68;7.45;;;7.80;99.90;;;;;;5070044;28;20048;-77
2023/12/18 08:43:32;;;;;;;30.08;8.38;;;7.80;99.90;;;;;;5015081;28;20038;-77
2023/12/18 08:45:58;;;;;;;15.93;6.93;;;7.80;99.90;;;;;;4999050;28;20069;-77
2023/12/18 08:48:23;;;;;;;27.70;6.43;;;7.80;99.90;;;;;;4986435;28;20096;-76
2023/12/18 08:50:49;;;;;;;14.27;7.05;;;7.90;99.90;;;;;;4972333;28;20112;-77
2023/12/18 08:53:15;;;;;;;18.35;7.65;;;7.90;99.90;;;;;;4971840;28;20042;-77
2023/12/18 08:55:40;;;;;;;17.85;6.85;;;7.90;99.90;;;;;;5073574;28;20050;-77
2023/12/18 08:58:09;;;;;;;19.02;7.80;;;7.90;99.90;;;;;;5061790;28;20058;-77
2023/12/18 09:00:35;;;;;;;19.80;8.00;;;7.90;99.90;;;;;;4982711;28;20033;-77
2023/12/18 09:03:02;;;;;;;20.65;7.00;;;7.90;99.90;;;;;;4980439;28;20035;-77
2023/12/18 09:05:28;;;;;;;20.35;7.07;;;7.90;99.90;;;;;;5002181;28;20046;-77
2023/12/18 09:07:54;;;;;;;19.08;7.82;;;7.90;99.90;;;;;;4980879;28;20054;-77
2023/12/18 09:10:22;;;;;;;17.73;7.10;;;8.00;99.90;;;;;;4981017;28;20039;-77
2023/12/18 09:12:54;;;;;;;24.67;7.72;;;8.00;99.90;;;;;;5000478;28;20045;-77
2023/12/18 09:15:20;;;;;;;19.52;7.90;;;8.00;99.90;;;;;;4981832;28;20042;-76
2023/12/18 09:17:45;;;;;;;12.25;7.40;;;8.10;99.90;;;;;;4999832;28;20105;-77
2023/12/18 09:20:11;;;;;;;19.75;7.30;;;8.10;99.90;;;;;;4984391;28;20050;-77
2023/12/18 09:22:37;;;;;;;19.10;7.90;;;8.20;99.90;;;;;;4982341;28;20059;-77
2023/12/18 09:25:04;;;;;;;28.63;8.70;;;8.10;99.90;;;;;;5016826;28;20046;-77
2023/12/18 09:27:30;;;;;;;13.45;7.32;;;8.10;99.90;;;;;;4965362;28;20136;-77
2023/12/18 09:29:55;;;;;;;15.52;6.25;;;8.10;99.90;;;;;;5016854;28;20046;-77
2023/12/18 09:32:21;;;;;;;15.98;7.43;;;8.10;99.90;;;;;;4982747;28;20049;-77
2023/12/18 09:34:47;;;;;;;13.82;6.90;;;8.10;99.90;;;;;;4997474;28;20594;-77
2023/12/18 09:37:13;;;;;;;19.92;8.43;;;8.10;99.90;;;;;;4990240;28;20050;-77
2023/12/18 09:39:42;;;;;;;20.08;8.20;;;8.20;99.90;;;;;;4961395;28;20129;-78
2023/12/18 09:42:11;;;;;;;26.23;8.55;;;8.20;99.90;;;;;;4993774;28;20097;-76
2023/12/18 09:44:38;;;;;;;20.73;9.23;;;8.20;99.90;;;;;;4988897;28;20047;-78
2023/12/18 09:47:04;;;;;;;25.35;9.15;;;8.20;99.90;;;;;;5008076;28;20050;-78
2023/12/18 09:49:30;;;;;;;17.90;8.23;;;8.20;99.90;;;;;;4987808;28;20057;-77
2023/12/18 09:52:08;;;;;;;18.73;7.78;;;8.20;99.90;;;;;;4975061;28;20046;-78
2023/12/18 09:54:34;;;;;;;21.08;7.95;;;8.20;99.90;;;;;;4975353;28;20053;-77
2023/12/18 09:57:07;;;;;;;20.85;8.25;;;8.30;99.90;;;;;;5001985;28;20070;-77
2023/12/18 09:59:33;;;;;;;26.90;9.13;;;8.30;99.90;;;;;;5006074;28;20073;-78
2023/12/18 10:01:59;;;;;;;16.55;7.43;;;8.30;99.90;;;;;;4989597;28;20042;-78
2023/12/18 10:04:26;;;;;;;16.95;7.50;;;8.30;99.90;;;;;;4990815;28;20042;-78
2023/12/18 10:06:51;;;;;;;20.60;7.63;;;8.30;99.90;;;;;;5004173;28;20046;-77
2023/12/18 10:09:18;;;;;;;17.13;7.65;;;8.30;99.90;;;;;;4989886;28;20053;-78
2023/12/18 10:11:48;;;;;;;23.88;8.05;;;8.30;99.90;;;;;;4973988;28;20050;-77
2023/12/18 10:14:17;;;;;;;23.52;9.25;;;8.40;99.90;;;;;;4987829;28;20077;-78
2023/12/18 10:16:43;;;;;;;20.33;8.65;;;8.40;99.90;;;;;;4989159;28;20045;-77
2023/12/18 10:19:10;;;;;;;22.25;8.05;;;8.40;99.90;;;;;;4989652;28;20046;-78
2023/12/18 10:21:39;;;;;;;26.77;9.40;;;8.40;99.90;;;;;;4993488;28;20490;-77
2023/12/18 10:24:08;;;;;;;28.15;9.68;;;8.40;99.90;;;;;;5002106;28;20054;-77
2023/12/18 10:26:33;;;;;;;28.95;9.27;;;8.40;99.90;;;;;;4986581;28;20128;-77
2023/12/18 10:29:00;;;;;;;17.70;8.07;;;8.40;99.90;;;;;;5021969;28;20466;-79
2023/12/18 10:31:26;;;;;;;23.83;9.82;;;8.40;99.90;;;;;;4988693;28;20054;-79
2023/12/18 10:33:52;;;;;;;27.85;10.77;;;8.40;99.90;;;;;;4973604;28;20034;-79
2023/12/18 10:36:18;;;;;;;25.70;7.97;;;8.40;99.90;;;;;;4987697;28;20057;-79
2023/12/18 10:38:52;;;;;;;23.48;9.27;;;8.40;99.90;;;;;;4973963;28;20042;-79
2023/12/18 10:41:21;;;;;;;20.95;10.30;;;8.40;99.90;;;;;;5004233;28;20057;-79
2023/12/18 10:43:48;;;;;;;19.13;8.52;;;8.40;99.90;;;;;;4989673;28;20075;-77
2023/12/18 10:46:14;;;;;;;26.73;9.30;;;8.40;99.90;;;;;;4988796;28;20053;-78
2023/12/18 10:48:41;;;;;;;21.90;8.98;;;8.40;99.90;;;;;;4988967;28;20034;-77
2023/12/18 10:51:09;;;;;;;29.33;9.50;;;8.40;99.90;;;;;;5007629;28;20077;-77
2023/12/18 10:53:37;;;;;;;30.08;9.70;;;8.40;99.90;;;;;;4990930;28;20042;-79
2023/12/18 10:56:05;;;;;;;20.30;8.45;;;8.40;99.90;;;;;;5009664;28;20056;-78
2023/12/18 10:58:33;;;;;;;19.38;8.40;;;8.40;99.90;;;;;;5008984;28;20397;-78
2023/12/18 11:01:00;;;;;;;19.65;9.43;;;8.40;99.90;;;;;;4989960;28;20046;-78
2023/12/18 11:03:27;;;;;;;26.88;9.93;;;8.40;99.90;;;;;;4992692;28;20045;-78
2023/12/18 11:05:55;;;;;;;19.13;8.55;;;8.50;99.90;;;;;;5004859;28;20046;-79
2023/12/18 11:08:21;;;;;;;19.65;8.15;;;8.50;99.90;;;;;;5014943;28;20053;-79
2023/12/18 11:10:47;;;;;;;21.17;9.45;;;8.40;99.90;;;;;;4985116;28;20086;-78
2023/12/18 11:13:28;;;;;;;21.33;7.97;;;8.50;99.90;;;;;;4995448;28;20065;-79
2023/12/18 11:16:15;;;;;;;20.70;9.32;;;8.50;99.90;;;;;;5012496;28;20086;-79
2023/12/18 11:18:50;;;;;;;18.58;8.80;;;8.50;99.90;;;;;;4987250;28;20042;-78
2023/12/18 11:21:16;;;;;;;20.58;8.48;;;8.50;99.90;;;;;;4997522;28;20516;-79
2023/12/18 11:23:41;;;;;;;19.50;8.65;;;8.60;99.90;;;;;;4992695;28;20108;-79
2023/12/18 11:26:12;;;;;;;16.63;8.80;;;8.60;99.90;;;;;;4974152;28;20043;-78
2023/12/18 11:28:39;;;;;;;16.92;8.63;;;8.70;99.90;;;;;;4986625;28;20038;-79
2023/12/18 11:31:06;;;;;;;18.95;8.75;;;8.70;99.90;;;;;;4991991;28;20114;-79
2023/12/18 11:33:31;;;;;;;19.40;8.88;;;8.80;99.90;;;;;;5016767;28;20046;-79
2023/12/18 11:35:57;;;;;;;18.85;8.85;;;8.80;99.90;;;;;;4987329;28;20155;-79
2023/12/18 11:38:24;;;;;;;17.00;8.00;;;8.90;99.90;;;;;;4996686;28;20102;-78
2023/12/18 11:40:52;;;;;;;13.63;7.45;;;8.90;99.90;;;;;;4983083;28;20038;-79
2023/12/18 11:43:34;;;;;;;9.93;5.97;;;9.00;99.90;;;;;;5019173;28;20046;-79
2023/12/18 11:46:01;;;;;;;16.08;8.10;;;9.10;99.90;;;;;;5002154;28;20041;-79
2023/12/18 11:48:27;;;;;;;14.85;7.38;;;9.20;99.90;;;;;;5016224;28;20097;-79
2023/12/18 11:50:52;;;;;;;17.38;8.30;;;9.20;99.90;;;;;;5002073;28;20041;-79
2023/12/18 11:53:24;;;;;;;16.55;7.40;;;9.20;99.90;;;;;;4983564;28;20075;-79
2023/12/18 11:55:52;;;;;;;20.08;8.75;;;9.30;99.90;;;;;;5001216;28;20042;-79
2023/12/18 11:58:27;;;;;;;17.80;7.25;;;9.30;99.90;;;;;;4994502;28;20043;-79
2023/12/18 12:00:56;;;;;;;14.93;7.43;;;9.20;99.90;;;;;;4968657;28;20038;-77
2023/12/18 12:03:22;;;;;;;15.93;7.57;;;9.20;99.90;;;;;;4999900;28;20046;-77
2023/12/18 12:05:48;;;;;;;20.10;8.27;;;9.20;99.90;;;;;;4987423;28;20110;-77
2023/12/18 12:08:15;;;;;;;18.35;8.27;;;9.10;99.90;;;;;;5006173;28;20053;-77
2023/12/18 12:10:46;;;;;;;19.35;7.32;;;9.10;99.90;;;;;;4990173;28;20077;-77
2023/12/18 12:13:23;;;;;;;19.98;6.95;;;9.10;99.90;;;;;;4990105;28;20450;-77
2023/12/18 12:15:57;;;;;;;22.02;8.07;;;9.10;99.90;;;;;;4996463;28;20057;-76
2023/12/18 12:18:27;;;;;;;22.42;8.75;;;9.00;99.90;;;;;;5011177;28;20141;-75
2023/12/18 12:20:53;;;;;;;13.95;7.53;;;9.00;99.90;;;;;;4991464;28;20434;-75
2023/12/18 12:23:19;;;;;;;20.48;9.32;;;9.00;99.90;;;;;;4965505;28;20515;-75
2023/12/18 12:25:47;;;;;;;17.33;7.78;;;9.00;99.90;;;;;;4982636;28;20039;-76
2023/12/18 12:28:16;;;;;;;21.30;8.52;;;9.00;99.90;;;;;;5009258;28;20582;-76
2023/12/18 12:30:46;;;;;;;14.63;7.85;;;8.90;99.90;;;;;;4979594;28;20038;-77
2023/12/18 12:33:12;;;;;;;15.35;6.88;;;8.90;99.90;;;;;;4995522;28;20054;-77
2023/12/18 12:35:38;;;;;;;15.07;7.80;;;9.00;99.90;;;;;;5010777;28;20085;-77
2023/12/18 12:38:05;;;;;;;20.73;6.88;;;8.90;99.90;;;;;;4986975;28;20110;-77
2023/12/18 12:40:42;;;;;;;16.70;7.00;;;9.00;99.90;;;;;;4961620;28;20034;-77
2023/12/18 12:43:10;;;;;;;18.90;8.50;;;9.00;99.90;;;;;;5079361;28;20041;-76
2023/12/18 12:45:37;;;;;;;13.25;7.22;;;9.00;99.90;;;;;;5013111;28;20038;-77